createdAt,value
2023-03-17T00:02:27.049Z,100.00
2023-03-17T00:04:57.641Z,100.00
2023-03-17T00:07:27.761Z,100.00
2023-03-17T00:10:00.704Z,100.00
2023-03-17T00:12:30.966Z,100.00
2023-03-17T00:15:01.319Z,100.00
2023-03-17T00:17:31.852Z,100.00
2023-03-17T00:20:02.011Z,100.00
2023-03-17T00:22:32.231Z,100.00
2023-03-17T00:25:20.990Z,100.00
2023-03-17T00:27:55.406Z,100.00
2023-03-17T00:30:29.193Z,100.00
2023-03-17T00:33:01.888Z,100.00
2023-03-17T00:35:33.537Z,100.00
2023-03-17T00:38:05.360Z,100.00
2023-03-17T00:40:41.335Z,100.00
2023-03-17T00:43:11.836Z,100.00
2023-03-17T00:45:43.017Z,100.00
2023-03-17T00:48:18.068Z,100.00
2023-03-17T00:50:49.868Z,100.00
2023-03-17T00:53:21.922Z,100.00
2023-03-17T00:55:55.092Z,100.00
2023-03-17T00:58:29.935Z,100.00
2023-03-17T01:01:01.844Z,100.00
2023-03-17T01:03:33.203Z,100.00
2023-03-17T01:06:04.899Z,100.00
2023-03-17T01:08:35.331Z,100.00
2023-03-17T01:11:08.810Z,100.00
2023-03-17T01:13:40.803Z,100.00
2023-03-17T01:16:13.139Z,100.00
2023-03-17T01:18:43.782Z,100.00
2023-03-17T01:21:14.187Z,100.00
2023-03-17T01:23:44.740Z,100.00
2023-03-17T01:26:17.611Z,100.00
2023-03-17T01:28:50.017Z,100.00
2023-03-17T01:31:24.086Z,100.00
2023-03-17T01:33:57.909Z,100.00
2023-03-17T01:36:30.365Z,100.00
2023-03-17T01:39:03.476Z,100.00
2023-03-17T01:41:42.415Z,100.00
2023-03-17T01:44:19.752Z,100.00
2023-03-17T01:46:50.460Z,100.00
2023-03-17T01:49:31.998Z,100.00
2023-03-17T01:52:10.546Z,100.00
2023-03-17T01:54:48.342Z,100.00
2023-03-17T01:57:26.920Z,100.00
2023-03-17T02:00:01.794Z,100.00
2023-03-17T02:02:35.250Z,100.00
2023-03-17T02:05:07.123Z,100.00
2023-03-17T02:07:37.962Z,100.00
2023-03-17T02:10:09.925Z,100.00
2023-03-17T02:12:48.925Z,100.00
2023-03-17T02:15:20.126Z,100.00
2023-03-17T02:17:50.659Z,100.00
2023-03-17T02:20:50.955Z,100.00
2023-03-17T02:23:25.241Z,100.00
2023-03-17T02:25:57.060Z,100.00
2023-03-17T02:28:33.080Z,100.00
2023-03-17T02:31:03.937Z,100.00
2023-03-17T02:33:34.185Z,100.00
2023-03-17T02:36:04.273Z,100.00
2023-03-17T02:38:37.050Z,100.00
2023-03-17T02:41:07.520Z,100.00
2023-03-17T02:43:37.677Z,100.00
2023-03-17T02:46:08.365Z,100.00
2023-03-17T02:48:39.937Z,100.00
2023-03-17T02:51:10.474Z,100.00
2023-03-17T02:53:43.213Z,100.00
2023-03-17T02:56:13.297Z,100.00
2023-03-17T02:58:43.368Z,100.00
2023-03-17T03:01:13.647Z,100.00
2023-03-17T03:03:43.906Z,100.00
2023-03-17T03:06:14.008Z,100.00
2023-03-17T03:08:47.142Z,100.00
2023-03-17T03:11:17.187Z,100.00
2023-03-17T03:13:47.804Z,100.00
2023-03-17T03:16:18.214Z,100.00
2023-03-17T03:18:48.340Z,100.00
2023-03-17T03:21:18.763Z,100.00
2023-03-17T03:23:51.644Z,100.00
2023-03-17T03:26:21.775Z,100.00
2023-03-17T03:28:52.162Z,100.00
2023-03-17T03:31:23.030Z,100.00
2023-03-17T03:33:53.386Z,100.00
2023-03-17T03:36:23.682Z,100.00
2023-03-17T03:38:56.729Z,100.00
2023-03-17T03:41:27.413Z,100.00
2023-03-17T03:43:57.569Z,100.00
2023-03-17T03:46:27.683Z,100.00
2023-03-17T03:48:58.158Z,100.00
2023-03-17T03:51:28.398Z,100.00
2023-03-17T03:54:01.461Z,100.00
2023-03-17T03:56:31.599Z,100.00
2023-03-17T03:59:01.805Z,100.00
2023-03-17T04:01:31.968Z,100.00
2023-03-17T04:04:02.047Z,100.00
2023-03-17T04:06:32.113Z,100.00
2023-03-17T04:09:04.976Z,100.00
2023-03-17T04:11:35.059Z,100.00
2023-03-17T04:14:06.565Z,100.00
2023-03-17T04:16:36.676Z,100.00
2023-03-17T04:19:06.915Z,100.00
2023-03-17T04:21:37.121Z,100.00
2023-03-17T04:24:11.123Z,100.00
2023-03-17T04:26:41.442Z,100.00
2023-03-17T04:29:15.771Z,100.00
2023-03-17T04:31:46.018Z,100.00
2023-03-17T04:34:18.861Z,100.00
2023-03-17T04:36:50.229Z,100.00
2023-03-17T04:39:23.847Z,100.00
2023-03-17T04:41:53.988Z,100.00
2023-03-17T04:44:24.096Z,100.00
2023-03-17T04:46:54.487Z,100.00
2023-03-17T04:49:24.685Z,100.00
2023-03-17T04:51:55.189Z,100.00
2023-03-17T04:54:27.876Z,100.00
2023-03-17T04:56:58.106Z,100.00
2023-03-17T04:59:28.171Z,100.00
2023-03-17T05:01:58.281Z,100.00
2023-03-17T05:04:32.014Z,100.00
2023-03-17T05:07:03.029Z,100.00
2023-03-17T05:09:35.701Z,100.00
2023-03-17T05:12:05.912Z,100.00
2023-03-17T05:14:36.026Z,100.00
2023-03-17T05:17:06.158Z,100.00
2023-03-17T05:19:36.294Z,100.00
2023-03-17T05:22:06.588Z,100.00
2023-03-17T05:24:39.594Z,100.00
2023-03-17T05:27:09.782Z,100.00
2023-03-17T05:29:39.973Z,100.00
2023-03-17T05:32:10.419Z,100.00
2023-03-17T05:34:40.490Z,100.00
2023-03-17T05:37:10.668Z,100.00
2023-03-17T05:39:43.834Z,100.00
2023-03-17T05:42:14.004Z,100.00
2023-03-17T05:44:44.718Z,100.00
2023-03-17T05:47:15.210Z,100.00
2023-03-17T05:49:45.338Z,100.00
2023-03-17T05:52:15.598Z,100.00
2023-03-17T05:54:49.242Z,100.00
2023-03-17T05:57:19.377Z,100.00
2023-03-17T05:59:50.918Z,100.00
2023-03-17T06:02:21.307Z,100.00
2023-03-17T06:04:52.304Z,100.00
2023-03-17T06:07:22.495Z,100.00
2023-03-17T06:09:56.026Z,100.00
2023-03-17T06:12:26.373Z,100.00
2023-03-17T06:14:56.436Z,100.00
2023-03-17T06:17:26.589Z,100.00
2023-03-17T06:19:56.963Z,100.00
2023-03-17T06:22:27.485Z,100.00
2023-03-17T06:25:01.237Z,100.00
2023-03-17T06:27:31.273Z,100.00
2023-03-17T06:30:01.759Z,100.00
2023-03-17T06:32:31.940Z,100.00
2023-03-17T06:35:02.097Z,100.00
2023-03-17T06:37:32.486Z,100.00
2023-03-17T06:40:06.002Z,100.00
2023-03-17T06:42:36.010Z,100.00
2023-03-17T06:45:06.731Z,100.00
2023-03-17T06:47:37.444Z,97.51
2023-03-17T06:50:09.916Z,98.04
2023-03-17T06:52:41.014Z,96.34
2023-03-17T06:55:14.092Z,94.62
2023-03-17T06:57:44.260Z,91.93
2023-03-17T07:00:16.223Z,90.81
2023-03-17T07:02:46.401Z,88.12
2023-03-17T07:05:19.046Z,88.16
2023-03-17T07:07:49.472Z,86.88
2023-03-17T07:10:23.294Z,87.53
2023-03-17T07:12:53.100Z,88.47
2023-03-17T07:15:25.334Z,85.63
2023-03-17T07:17:55.851Z,84.08
2023-03-17T07:20:26.119Z,81.09
2023-03-17T07:22:56.338Z,80.41
2023-03-17T07:25:29.626Z,78.85
2023-03-17T07:28:01.163Z,81.05
2023-03-17T07:30:32.146Z,76.49
2023-03-17T07:33:02.419Z,77.63
2023-03-17T07:35:34.097Z,73.05
2023-03-17T07:38:04.639Z,72.61
2023-03-17T07:40:37.394Z,74.74
2023-03-17T07:43:08.444Z,75.52
2023-03-17T07:45:39.155Z,74.02
2023-03-17T07:48:10.966Z,69.86
2023-03-17T07:50:41.596Z,70.83
2023-03-17T07:53:12.034Z,70.88
2023-03-17T07:55:44.809Z,70.08
2023-03-17T07:58:15.981Z,73.04
2023-03-17T08:00:46.809Z,70.78
2023-03-17T08:03:17.077Z,67.68
2023-03-17T08:05:49.268Z,68.55
2023-03-17T08:08:21.509Z,69.00
2023-03-17T08:10:55.078Z,66.02
2023-03-17T08:13:25.212Z,66.12
2023-03-17T08:15:56.052Z,65.33
2023-03-17T08:18:26.230Z,66.76
2023-03-17T08:20:56.339Z,63.28
2023-03-17T08:23:26.771Z,63.40
2023-03-17T08:26:03.342Z,63.77
2023-03-17T08:28:34.689Z,62.67
2023-03-17T08:31:13.109Z,61.14
2023-03-17T08:33:43.702Z,61.09
2023-03-17T08:36:14.586Z,59.34
2023-03-17T08:38:45.312Z,58.30
2023-03-17T08:41:20.342Z,58.12
2023-03-17T08:43:50.996Z,57.61
2023-03-17T08:46:23.118Z,53.95
2023-03-17T08:48:56.123Z,51.09
2023-03-17T08:51:27.253Z,51.52
2023-03-17T08:53:58.885Z,53.19
2023-03-17T08:56:31.949Z,53.38
2023-03-17T08:59:02.188Z,51.51
2023-03-17T09:01:32.616Z,51.76
2023-03-17T09:04:02.966Z,51.34
2023-03-17T09:06:33.121Z,50.35
2023-03-17T09:09:03.181Z,53.03
2023-03-17T09:11:36.005Z,51.20
2023-03-17T09:14:06.315Z,47.06
2023-03-17T09:16:37.273Z,45.34
2023-03-17T09:19:07.565Z,48.71
2023-03-17T09:21:37.915Z,47.07
2023-03-17T09:24:08.672Z,45.72
2023-03-17T09:26:41.450Z,45.59
2023-03-17T09:29:11.513Z,46.63
2023-03-17T09:31:43.224Z,43.81
2023-03-17T09:34:14.054Z,42.38
2023-03-17T09:36:44.170Z,46.80
2023-03-17T09:39:14.387Z,45.01
2023-03-17T09:42:14.986Z,42.80
2023-03-17T09:45:01.845Z,43.26
2023-03-17T09:47:52.089Z,42.74
2023-03-17T09:50:27.716Z,42.68
2023-03-17T09:53:02.648Z,43.50
2023-03-17T09:55:37.232Z,40.39
2023-03-17T09:58:14.599Z,42.09
2023-03-17T10:00:45.265Z,41.04
2023-03-17T10:03:15.810Z,44.05
2023-03-17T10:05:45.951Z,40.13
2023-03-17T10:08:30.636Z,40.11
2023-03-17T10:11:09.611Z,40.12
2023-03-17T10:13:55.023Z,39.98
2023-03-17T10:16:30.611Z,41.19
2023-03-17T10:19:07.321Z,42.40
2023-03-17T10:21:42.882Z,40.72
2023-03-17T10:24:14.472Z,39.12
2023-03-17T10:26:49.274Z,39.40
2023-03-17T10:29:24.421Z,41.57
2023-03-17T10:31:58.261Z,39.84
2023-03-17T10:34:30.995Z,41.38
2023-03-17T10:37:04.988Z,37.78
2023-03-17T10:39:35.074Z,35.98
2023-03-17T10:42:14.115Z,37.53
2023-03-17T10:44:53.718Z,38.90
2023-03-17T10:47:31.987Z,39.99
2023-03-17T10:50:07.604Z,39.34
2023-03-17T10:52:42.568Z,37.73
2023-03-17T10:55:17.587Z,40.59
2023-03-17T10:57:55.578Z,40.20
2023-03-17T11:00:33.938Z,40.46
2023-03-17T11:03:13.849Z,38.88
2023-03-17T11:05:44.285Z,38.82
2023-03-17T11:08:21.970Z,35.83
2023-03-17T11:10:57.942Z,37.21
2023-03-17T11:13:33.114Z,37.25
2023-03-17T11:16:13.807Z,37.77
2023-03-17T11:18:44.061Z,38.37
2023-03-17T11:21:19.441Z,37.87
2023-03-17T11:23:56.931Z,35.95
2023-03-17T11:27:01.338Z,37.70
2023-03-17T11:29:43.307Z,38.49
2023-03-17T11:32:28.728Z,38.47
2023-03-17T11:35:18.906Z,38.97
2023-03-17T11:38:22.411Z,37.43
2023-03-17T11:41:10.948Z,37.00
2023-03-17T11:43:50.853Z,36.71
2023-03-17T11:46:29.058Z,35.19
2023-03-17T11:49:13.177Z,35.25
2023-03-17T11:51:52.437Z,36.39
2023-03-17T11:54:28.958Z,36.84
2023-03-17T11:57:03.095Z,34.45
2023-03-17T11:59:40.907Z,36.34
2023-03-17T12:02:23.540Z,37.45
2023-03-17T12:04:59.844Z,35.39
2023-03-17T12:07:36.732Z,34.09
2023-03-17T12:10:18.699Z,36.37
2023-03-17T12:12:53.602Z,36.98
2023-03-17T12:15:32.442Z,37.98
2023-03-17T12:18:08.156Z,37.50
2023-03-17T12:20:49.855Z,36.57
2023-03-17T12:23:30.206Z,36.32
2023-03-17T12:26:05.341Z,35.89
2023-03-17T12:28:40.302Z,34.91
2023-03-17T12:31:15.264Z,36.76
2023-03-17T12:33:52.898Z,35.48
2023-03-17T12:36:26.102Z,34.01
2023-03-17T12:39:02.016Z,35.57
2023-03-17T12:41:49.211Z,35.62
2023-03-17T12:44:36.197Z,35.97
2023-03-17T12:47:22.999Z,36.10
2023-03-17T12:50:17.072Z,35.89
2023-03-17T12:53:17.175Z,35.80
2023-03-17T12:55:49.988Z,36.32
2023-03-17T12:58:31.552Z,34.43
2023-03-17T13:01:17.566Z,36.62
2023-03-17T13:04:04.291Z,37.07
2023-03-17T13:06:42.736Z,35.75
2023-03-17T13:09:49.221Z,37.23
2023-03-17T13:13:01.142Z,35.80
2023-03-17T13:15:48.429Z,35.60
2023-03-17T13:18:33.148Z,34.77
2023-03-17T13:21:16.380Z,36.54
2023-03-17T13:23:49.040Z,35.58
2023-03-17T13:26:23.801Z,35.29
2023-03-17T13:28:54.925Z,36.06
2023-03-17T13:31:39.984Z,36.33
2023-03-17T13:34:17.931Z,35.72
2023-03-17T13:36:58.131Z,36.19
2023-03-17T13:39:57.960Z,37.47
2023-03-17T13:43:09.613Z,35.96
2023-03-17T13:45:41.775Z,37.07
2023-03-17T13:48:33.847Z,36.86
2023-03-17T13:51:06.611Z,36.45
2023-03-17T13:53:41.446Z,38.70
2023-03-17T13:56:19.817Z,35.77
2023-03-17T13:59:08.111Z,36.43
2023-03-17T14:01:44.095Z,36.90
2023-03-17T14:04:25.021Z,35.96
2023-03-17T14:06:59.749Z,36.80
2023-03-17T14:09:39.721Z,36.77
2023-03-17T14:12:17.675Z,37.39
2023-03-17T14:14:55.981Z,36.83
2023-03-17T14:17:31.066Z,36.80
2023-03-17T14:20:08.646Z,37.58
2023-03-17T14:22:47.194Z,36.90
2023-03-17T14:25:20.153Z,37.28
2023-03-17T14:27:53.905Z,37.87
2023-03-17T14:30:29.308Z,38.50
2023-03-17T14:33:04.799Z,37.70
2023-03-17T14:35:36.192Z,38.83
2023-03-17T14:38:06.700Z,38.81
2023-03-17T14:40:37.156Z,38.29
2023-03-17T14:43:07.466Z,38.35
2023-03-17T14:45:52.630Z,37.46
2023-03-17T14:48:28.798Z,38.43
2023-03-17T14:51:05.453Z,39.32
2023-03-17T14:53:37.409Z,37.79
2023-03-17T14:56:08.056Z,39.86
2023-03-17T14:58:43.572Z,38.92
2023-03-17T15:01:20.265Z,38.01
2023-03-17T15:03:59.312Z,38.39
2023-03-17T15:06:31.292Z,36.85
2023-03-17T15:09:04.154Z,37.39
2023-03-17T15:11:43.073Z,35.88
2023-03-17T15:14:21.346Z,35.77
2023-03-17T15:16:57.676Z,36.20
2023-03-17T15:19:31.382Z,37.05
2023-03-17T15:22:01.659Z,37.92
2023-03-17T15:24:44.234Z,38.08
2023-03-17T15:27:18.411Z,37.49
2023-03-17T15:29:51.780Z,39.18
2023-03-17T15:32:26.237Z,38.76
2023-03-17T15:34:58.055Z,38.26
2023-03-17T15:37:30.616Z,37.79
2023-03-17T15:40:01.655Z,37.36
2023-03-17T15:42:34.099Z,37.71
2023-03-17T15:45:04.572Z,39.30
2023-03-17T15:47:41.846Z,39.04
2023-03-17T15:50:19.534Z,38.14
2023-03-17T15:52:49.892Z,43.70
2023-03-17T15:55:23.769Z,41.64
2023-03-17T15:57:55.701Z,38.60
2023-03-17T16:00:29.896Z,39.39
2023-03-17T16:03:07.351Z,39.44
2023-03-17T16:05:38.936Z,39.17
2023-03-17T16:08:09.547Z,40.26
2023-03-17T16:10:39.660Z,39.19
2023-03-17T16:13:09.767Z,39.99
2023-03-17T16:15:43.030Z,40.04
2023-03-17T16:18:21.276Z,40.90
2023-03-17T16:20:53.533Z,40.94
2023-03-17T16:23:26.437Z,41.05
2023-03-17T16:26:11.822Z,41.84
2023-03-17T16:28:44.746Z,41.29
2023-03-17T16:31:25.180Z,42.31
2023-03-17T16:33:58.786Z,41.21
2023-03-17T16:36:29.209Z,41.92
2023-03-17T16:39:00.173Z,42.26
2023-03-17T16:41:30.818Z,43.41
2023-03-17T16:44:03.527Z,44.24
2023-03-17T16:46:37.602Z,44.19
2023-03-17T16:49:10.589Z,44.30
2023-03-17T16:51:40.792Z,45.28
2023-03-17T16:54:13.740Z,45.22
2023-03-17T16:56:45.091Z,44.68
2023-03-17T16:59:21.797Z,46.54
2023-03-17T17:01:54.985Z,46.92
2023-03-17T17:04:27.806Z,47.44
2023-03-17T17:06:57.974Z,46.83
2023-03-17T17:09:28.414Z,46.42
2023-03-17T17:11:58.667Z,46.29
2023-03-17T17:14:28.795Z,47.17
2023-03-17T17:16:59.161Z,48.76
2023-03-17T17:19:32.164Z,48.16
2023-03-17T17:22:02.304Z,48.82
2023-03-17T17:24:32.420Z,50.08
2023-03-17T17:27:02.549Z,48.04
2023-03-17T17:29:32.655Z,49.55
2023-03-17T17:32:02.847Z,49.46
2023-03-17T17:34:35.708Z,50.40
2023-03-17T17:37:09.059Z,50.19
2023-03-17T17:39:39.139Z,51.86
2023-03-17T17:42:09.781Z,51.82
2023-03-17T17:44:40.038Z,52.95
2023-03-17T17:47:10.578Z,52.96
2023-03-17T17:49:43.395Z,54.86
2023-03-17T17:52:13.868Z,53.58
2023-03-17T17:54:44.060Z,53.14
2023-03-17T17:57:14.795Z,52.50
2023-03-17T17:59:44.915Z,51.79
2023-03-17T18:02:15.934Z,54.18
2023-03-17T18:04:49.317Z,53.54
2023-03-17T18:07:19.435Z,53.77
2023-03-17T18:09:49.477Z,52.37
2023-03-17T18:12:19.631Z,51.59
2023-03-17T18:14:49.765Z,51.91
2023-03-17T18:17:21.992Z,51.83
2023-03-17T18:19:55.744Z,52.30
2023-03-17T18:22:25.823Z,51.68
2023-03-17T18:24:56.722Z,51.99
2023-03-17T18:27:26.818Z,51.70
2023-03-17T18:29:58.579Z,51.20
2023-03-17T18:32:30.759Z,51.82
2023-03-17T18:35:08.166Z,52.85
2023-03-17T18:37:39.689Z,53.12
2023-03-17T18:40:17.994Z,53.40
2023-03-17T18:42:49.124Z,54.14
2023-03-17T18:45:19.615Z,53.80
2023-03-17T18:47:49.864Z,54.90
2023-03-17T18:50:24.994Z,54.82
2023-03-17T18:52:56.046Z,55.67
2023-03-17T18:55:26.186Z,55.50
2023-03-17T18:57:57.380Z,55.91
2023-03-17T19:00:28.028Z,56.98
2023-03-17T19:02:58.332Z,56.45
2023-03-17T19:05:34.085Z,56.93
2023-03-17T19:08:04.340Z,57.28
2023-03-17T19:10:34.612Z,58.45
2023-03-17T19:13:05.420Z,58.13
2023-03-17T19:15:38.810Z,58.63
2023-03-17T19:18:09.798Z,58.88
2023-03-17T19:20:42.437Z,59.06
2023-03-17T19:23:12.668Z,58.73
2023-03-17T19:25:42.780Z,59.54
2023-03-17T19:28:12.855Z,59.69
2023-03-17T19:30:45.441Z,59.47
2023-03-17T19:33:16.209Z,59.43
2023-03-17T19:35:49.424Z,59.10
2023-03-17T19:38:19.972Z,59.27
2023-03-17T19:40:50.151Z,58.84
2023-03-17T19:43:39.034Z,59.80
2023-03-17T19:46:11.301Z,60.49
2023-03-17T19:48:42.099Z,60.29
2023-03-17T19:51:14.919Z,60.04
2023-03-17T19:53:45.003Z,60.46
2023-03-17T19:56:15.491Z,60.79
2023-03-17T19:58:46.111Z,60.28
2023-03-17T20:01:17.116Z,60.92
2023-03-17T20:03:47.294Z,60.43
2023-03-17T20:06:20.611Z,61.07
2023-03-17T20:08:50.798Z,60.86
2023-03-17T20:11:21.112Z,60.67
2023-03-17T20:13:51.284Z,61.40
2023-03-17T20:16:21.416Z,61.58
2023-03-17T20:18:51.495Z,61.13
2023-03-17T20:21:24.425Z,61.59
2023-03-17T20:23:54.829Z,60.48
2023-03-17T20:26:24.968Z,60.92
2023-03-17T20:28:55.797Z,60.45
2023-03-17T20:31:26.167Z,61.07
2023-03-17T20:33:56.465Z,60.54
2023-03-17T20:36:29.287Z,60.42
2023-03-17T20:38:59.430Z,61.11
2023-03-17T20:41:31.734Z,61.30
2023-03-17T20:44:01.830Z,61.95
2023-03-17T20:46:33.919Z,61.24
2023-03-17T20:49:05.753Z,61.52
2023-03-17T20:51:39.492Z,61.62
2023-03-17T20:54:11.137Z,61.80
2023-03-17T20:56:41.447Z,62.11
2023-03-17T20:59:13.567Z,62.12
2023-03-17T21:01:43.753Z,62.55
2023-03-17T21:04:17.874Z,63.15
2023-03-17T21:06:51.034Z,62.65
2023-03-17T21:09:21.752Z,62.24
2023-03-17T21:11:52.077Z,62.70
2023-03-17T21:14:23.274Z,62.67
2023-03-17T21:16:53.605Z,62.62
2023-03-17T21:19:23.892Z,63.42
2023-03-17T21:21:56.819Z,63.48
2023-03-17T21:24:31.359Z,63.91
2023-03-17T21:27:04.719Z,64.12
2023-03-17T21:29:38.005Z,64.25
2023-03-17T21:32:09.032Z,64.31
2023-03-17T21:34:39.942Z,63.78
2023-03-17T21:37:13.110Z,64.06
2023-03-17T21:39:43.171Z,63.78
2023-03-17T21:42:13.741Z,64.10
2023-03-17T21:44:45.879Z,63.91
2023-03-17T21:47:16.678Z,64.18
2023-03-17T21:49:47.240Z,63.88
2023-03-17T21:52:21.017Z,63.64
2023-03-17T21:54:51.346Z,63.62
2023-03-17T21:57:21.494Z,63.69
2023-03-17T21:59:51.599Z,63.27
2023-03-17T22:02:22.042Z,62.93
2023-03-17T22:04:52.781Z,63.67
2023-03-17T22:07:26.540Z,63.47
2023-03-17T22:09:57.950Z,63.09
2023-03-17T22:12:29.210Z,63.04
2023-03-17T22:15:00.397Z,63.18
2023-03-17T22:17:30.489Z,62.96
2023-03-17T22:20:00.730Z,62.97
2023-03-17T22:22:34.626Z,63.22
2023-03-17T22:25:05.793Z,64.08
2023-03-17T22:27:36.452Z,64.90
2023-03-17T22:30:07.174Z,64.57
2023-03-17T22:32:37.283Z,64.46
2023-03-17T22:35:08.451Z,64.85
2023-03-17T22:37:41.585Z,65.42
2023-03-17T22:40:13.310Z,66.46
2023-03-17T22:42:43.497Z,66.70
2023-03-17T22:45:14.838Z,66.91
2023-03-17T22:47:45.074Z,68.71
2023-03-17T22:50:15.228Z,68.31
2023-03-17T22:52:48.204Z,69.49
2023-03-17T22:55:18.511Z,71.34
2023-03-17T22:57:48.668Z,71.90
2023-03-17T23:00:20.021Z,72.15
2023-03-17T23:02:50.104Z,73.08
2023-03-17T23:05:20.502Z,73.94
2023-03-17T23:07:53.541Z,76.25
2023-03-17T23:10:25.022Z,75.98
2023-03-17T23:12:55.368Z,76.64
2023-03-17T23:15:26.700Z,77.06
2023-03-17T23:17:56.900Z,78.99
2023-03-17T23:20:27.310Z,78.10
2023-03-17T23:23:00.156Z,78.43
2023-03-17T23:25:30.267Z,78.26
2023-03-17T23:28:00.360Z,80.55
2023-03-17T23:30:31.370Z,80.54
2023-03-17T23:33:01.800Z,81.53
2023-03-17T23:35:32.031Z,80.47
2023-03-17T23:38:05.297Z,80.40
2023-03-17T23:40:36.661Z,79.76
2023-03-17T23:43:08.113Z,79.66
2023-03-17T23:45:38.408Z,77.84
2023-03-17T23:48:08.793Z,78.15
2023-03-17T23:50:39.439Z,76.82
2023-03-17T23:53:12.427Z,77.20
2023-03-17T23:55:43.050Z,77.04
2023-03-17T23:58:13.880Z,76.74
